Time;durP1;ratioP1;P1;durP2;ratioP2;P2;SDS_P1;SDS_P2;PMS_P1;PMS_P2;Temp;Humidity;BMP_temperature;BMP_pressure;BME280_temperature;BME280_humidity;BME280_pressure;Samples;Min_cycle;Max_cycle;Signal;HPM_P1;HPM_P2
2021/12/25 00:02:27;;;;;;;1.67;1.05;;;-4.80;99.90;;;-5.15;70.40;100471.94;4864632;29;20303;-67
2021/12/25 00:04:56;;;;;;;1.33;0.90;;;-4.80;99.90;;;-5.07;69.80;100474.00;4866751;29;20202;-68
2021/12/25 00:07:25;;;;;;;4.03;1.27;;;-4.70;99.90;;;-5.24;70.44;100475.25;4884057;29;20220;-67
2021/12/25 00:09:54;;;;;;;1.00;0.80;;;-4.80;99.90;;;-5.08;70.23;100467.88;4868574;29;20194;-67
2021/12/25 00:12:23;;;;;;;1.35;0.90;;;-4.70;99.90;;;-5.13;70.12;100469.19;4879626;29;20206;-69
2021/12/25 00:14:54;;;;;;;1.30;0.70;;;-4.70;99.90;;;-5.21;70.08;100472.38;4864208;29;20624;-68
2021/12/25 00:17:23;;;;;;;4.40;1.00;;;-4.80;99.90;;;-5.34;70.43;100477.72;4866393;29;20215;-68
2021/12/25 00:19:51;;;;;;;3.88;1.00;;;-4.90;99.90;;;-5.43;70.65;100477.53;4868312;29;20728;-68
2021/12/25 00:22:21;;;;;;;1.75;1.17;;;-4.90;99.90;;;-5.50;71.61;100484.19;4867704;29;20295;-69
2021/12/25 00:24:49;;;;;;;2.65;1.10;;;-5.00;99.90;;;-5.39;71.67;100485.09;4883705;29;20216;-67
2021/12/25 00:27:40;;;;;;;1.38;0.98;;;-4.90;99.90;;;-5.23;71.35;100482.22;4864371;29;20624;-68
2021/12/25 00:30:26;;;;;;;1.20;0.93;;;-4.80;99.90;;;-5.13;71.68;100490.28;4864287;29;20180;-66
2021/12/25 00:33:00;;;;;;;1.20;0.90;;;-4.80;99.90;;;-5.30;71.00;100489.72;4863378;29;20199;-68
2021/12/25 00:35:29;;;;;;;2.35;1.08;;;-4.80;99.90;;;-5.32;71.70;100493.41;4864887;29;20273;-68
2021/12/25 00:37:58;;;;;;;1.10;0.90;;;-4.80;99.90;;;-5.24;70.88;100503.41;4878094;29;20711;-67
2021/12/25 00:40:28;;;;;;;1.85;1.05;;;-4.80;99.90;;;-5.38;70.32;100497.34;4864068;29;20188;-66
2021/12/25 00:42:57;;;;;;;3.58;1.52;;;-4.90;99.90;;;-5.38;71.27;100507.06;4862957;29;20736;-69
2021/12/25 00:45:28;;;;;;;3.92;1.42;;;-4.90;99.90;;;-5.17;70.79;100508.13;4877818;29;20214;-67
2021/12/25 00:47:57;;;;;;;2.08;1.40;;;-4.80;99.90;;;-5.26;70.82;100511.44;4862504;29;20600;-67
2021/12/25 00:50:29;;;;;;;1.83;1.38;;;-4.80;99.90;;;-5.13;71.02;100512.22;4862794;29;20195;-68
2021/12/25 00:52:58;;;;;;;2.13;1.90;;;-4.80;99.90;;;-5.35;71.71;100514.72;4865063;29;20528;-68
2021/12/25 00:55:27;;;;;;;2.00;1.45;;;-4.90;99.90;;;-5.55;71.98;100515.31;4865536;29;20190;-68
2021/12/25 00:57:58;;;;;;;4.65;1.40;;;-5.00;99.90;;;-5.47;72.04;100526.16;4919376;23;20236;-81
2021/12/25 01:00:30;;;;;;;2.20;1.50;;;-5.00;99.90;;;-5.41;73.66;100534.47;4907121;29;20672;-79
2021/12/25 01:02:59;;;;;;;3.25;1.88;;;-5.00;99.90;;;-5.48;71.72;100527.13;4908211;29;20201;-82
2021/12/25 01:05:31;;;;;;;3.70;1.35;;;-5.00;99.90;;;-5.49;72.75;100541.25;4908203;29;20206;-80
2021/12/25 01:08:24;;;;;;;3.22;1.50;;;-5.00;99.90;;;-5.41;71.75;100534.47;4905566;29;20198;-79
2021/12/25 01:11:09;;;;;;;2.50;1.50;;;-5.00;99.90;;;-5.43;71.67;100546.09;4906674;29;20190;-81
2021/12/25 01:13:44;;;;;;;2.67;1.13;;;-5.00;99.90;;;-5.49;71.84;100546.50;4907049;29;20214;-80
2021/12/25 01:16:41;;;;;;;2.60;1.25;;;-5.00;99.90;;;-5.38;71.67;100544.81;4905637;29;20288;-81
2021/12/25 01:25:05;;;;;;;3.03;1.23;;;-5.00;99.90;;;-5.40;73.16;100567.81;4905370;29;20214;-81
2021/12/25 01:28:19;;;;;;;1.95;1.20;;;-5.00;99.90;;;-5.40;71.60;100566.97;4922241;29;20225;-80
2021/12/25 01:30:54;;;;;;;2.40;1.25;;;-4.90;1.00;;;-5.48;72.13;100558.75;4905011;29;20257;-80
2021/12/25 01:33:50;;;;;;;2.78;1.20;;;-5.00;99.90;;;-5.55;72.47;100566.25;4904748;29;20236;-81
2021/12/25 01:39:50;;;;;;;2.03;1.10;;;-5.10;1.00;;;-5.65;72.73;100572.25;4906353;29;20193;-80
2021/12/25 01:48:46;;;;;;;14.18;2.10;;;-5.20;1.00;;;-5.62;73.16;100596.63;4921491;29;20211;-79
2021/12/25 01:51:18;;;;;;;2.15;1.08;;;-5.20;19.00;;;-5.56;72.98;100587.44;4929865;29;20190;-79
2021/12/25 01:53:48;;;;;;;4.45;1.70;;;-5.20;99.90;;;-5.61;73.21;100597.44;4903207;29;20286;-78
2021/12/25 01:56:17;;;;;;;3.60;1.90;;;-5.20;1.00;;;-5.56;73.79;100597.97;4903903;29;20201;-80
2021/12/25 01:58:46;;;;;;;2.72;1.45;;;-5.20;30.90;;;-5.68;73.08;100593.56;4918976;29;20206;-79
2021/12/25 02:01:15;;;;;;;2.63;1.30;;;-5.20;99.90;;;-5.64;73.14;100587.97;4902608;29;20222;-79
2021/12/25 02:03:46;;;;;;;2.75;1.40;;;-5.20;99.90;;;-5.59;73.72;100606.97;4921601;29;20218;-80
2021/12/25 02:06:15;;;;;;;3.05;1.77;;;-5.20;99.90;;;-5.66;73.28;100612.78;4909645;29;20265;-81
2021/12/25 02:08:47;;;;;;;1.83;1.33;;;-5.20;99.90;;;-5.77;74.37;100613.50;4904523;29;20224;-79
2021/12/25 02:11:16;;;;;;;2.75;1.95;;;-5.30;99.90;;;-5.77;74.28;100610.88;4907144;29;20178;-80
2021/12/25 02:13:47;;;;;;;2.35;1.60;;;-5.30;99.90;;;-5.81;74.37;100618.13;4904716;29;20222;-80
2021/12/25 02:16:24;;;;;;;1.77;1.20;;;-5.30;99.90;;;-5.89;73.66;100609.94;4905758;29;20285;-79
2021/12/25 02:19:08;;;;;;;3.78;1.33;;;-5.40;99.90;;;-5.83;74.37;100617.41;4905750;29;20302;-80
2021/12/25 02:21:49;;;;;;;1.80;1.50;;;-5.40;99.90;;;-5.79;74.07;100618.03;4919458;29;20740;-79
2021/12/25 02:24:18;;;;;;;1.27;1.15;;;-5.40;99.90;;;-5.76;73.68;100623.91;4918932;29;20236;-80
2021/12/25 02:26:47;;;;;;;2.88;1.45;;;-5.40;99.90;;;-5.79;73.57;100618.88;4906032;29;20194;-79
2021/12/25 02:29:22;;;;;;;3.17;1.45;;;-5.40;99.90;;;-5.84;73.87;100620.97;4904560;29;20180;-81
2021/12/25 02:31:55;;;;;;;2.90;1.35;;;-5.40;99.90;;;-5.90;73.10;100621.41;4919361;29;20289;-81
2021/12/25 02:34:24;;;;;;;4.78;1.40;;;-5.40;99.90;;;-5.92;72.66;100639.13;4906180;29;20249;-80
2021/12/25 02:36:55;;;;;;;2.17;1.55;;;-5.50;99.90;;;-5.96;73.44;100635.03;4923348;29;20190;-81
2021/12/25 02:39:24;;;;;;;2.28;1.25;;;-5.50;99.90;;;-6.01;73.93;100642.41;4909275;29;20213;-80
2021/12/25 02:41:53;;;;;;;2.25;1.15;;;-5.50;99.90;;;-6.06;73.83;100641.88;4905345;29;20292;-79
2021/12/25 02:44:50;;;;;;;2.38;1.27;;;-5.50;99.90;;;-6.02;73.28;100643.34;4903600;29;20254;-81
2021/12/25 02:47:21;;;;;;;1.20;1.00;;;-5.50;99.90;;;-6.09;73.53;100649.94;4903987;29;20177;-79
2021/12/25 02:49:56;;;;;;;4.45;1.38;;;-5.60;99.90;;;-5.99;74.23;100648.38;4902900;29;20210;-83
2021/12/25 02:52:26;;;;;;;2.80;1.80;;;-5.50;99.90;;;-5.95;74.32;100644.59;4902497;29;20186;-81
2021/12/25 02:54:55;;;;;;;5.80;1.77;;;-5.50;99.90;;;-5.93;73.85;100650.63;4903503;29;20301;-80
2021/12/25 02:57:24;;;;;;;2.13;1.25;;;-5.40;99.90;;;-5.99;74.84;100653.66;4904102;29;20250;-81
2021/12/25 02:59:53;;;;;;;2.10;1.25;;;-5.50;99.90;;;-5.97;74.54;100657.06;4903786;29;20195;-81
2021/12/25 03:02:22;;;;;;;2.25;1.63;;;-5.50;99.90;;;-6.08;74.61;100653.44;4904236;29;20222;-81
2021/12/25 03:04:52;;;;;;;3.20;1.65;;;-5.50;99.90;;;-5.97;73.67;100659.69;4906852;29;20597;-81
2021/12/25 03:07:21;;;;;;;2.50;1.30;;;-5.50;99.90;;;-5.90;73.26;100653.03;4905482;29;20206;-79
2021/12/25 03:09:58;;;;;;;3.50;1.42;;;-5.50;99.90;;;-5.99;73.58;100663.34;4918599;29;20210;-80
2021/12/25 03:12:35;;;;;;;3.33;1.70;;;-5.40;99.90;;;-6.18;74.59;100658.47;4920465;29;20199;-80
2021/12/25 03:15:12;;;;;;;5.57;1.30;;;-5.50;99.90;;;-6.01;73.87;100660.84;4916873;29;20218;-80
2021/12/25 03:17:41;;;;;;;1.98;1.40;;;-5.50;99.90;;;-5.90;73.72;100668.84;4901702;29;20205;-79
2021/12/25 03:20:13;;;;;;;2.70;1.33;;;-5.50;99.90;;;-6.01;72.93;100666.09;4902470;29;20197;-80
2021/12/25 03:22:42;;;;;;;3.75;1.95;;;-5.50;99.90;;;-6.13;73.65;100656.38;4901358;29;20222;-80
2021/12/25 03:25:15;;;;;;;3.20;1.00;;;-5.60;99.90;;;-6.21;73.42;100664.78;4902441;29;20666;-81
2021/12/25 03:27:47;;;;;;;2.03;1.30;;;-5.70;99.90;;;-5.98;73.15;100671.16;4920910;29;20203;-81
2021/12/25 03:30:17;;;;;;;2.67;1.17;;;-5.60;99.90;;;-6.06;73.85;100673.47;4905658;29;20197;-79
2021/12/25 03:32:47;;;;;;;3.45;1.30;;;-5.60;99.90;;;-5.84;74.08;100672.84;4904423;29;20562;-81
2021/12/25 03:35:16;;;;;;;4.10;1.70;;;-5.40;99.90;;;-5.34;74.94;100675.50;4912654;29;20193;-80
2021/12/25 03:37:45;;;;;;;3.70;1.52;;;-5.10;99.90;;;-5.35;73.57;100678.25;4914567;29;20175;-82
2021/12/25 03:40:18;;;;;;;3.30;1.67;;;-5.00;99.90;;;-5.12;73.24;100685.38;4909497;29;20349;-80
2021/12/25 03:42:48;;;;;;;5.22;1.42;;;-4.90;99.90;;;-5.12;74.80;100682.75;4910186;29;20279;-80
2021/12/25 03:45:17;;;;;;;4.63;2.00;;;-4.90;99.90;;;-5.39;74.33;100689.97;4909085;29;20190;-80
2021/12/25 03:47:51;;;;;;;5.93;2.58;;;-4.90;99.90;;;-5.17;75.40;100690.16;4911358;29;20193;-81
2021/12/25 03:53:25;;;;;;;6.45;3.60;;;-4.70;99.90;;;-4.93;74.42;100680.50;4914619;29;20339;-80
2021/12/25 03:58:42;;;;;;;3.20;1.60;;;-4.90;99.90;;;-5.64;72.64;100690.78;4912839;29;20707;-80
2021/12/25 04:01:25;;;;;;;2.22;1.48;;;-5.10;99.90;;;-5.89;73.54;100686.34;4931120;29;20465;-79
2021/12/25 04:04:10;;;;;;;4.43;2.00;;;-5.30;99.90;;;-5.71;73.60;100695.63;4932299;29;20232;-79
2021/12/25 04:06:50;;;;;;;3.03;1.65;;;-5.20;99.90;;;-5.73;74.98;100697.53;4933219;29;20205;-80
2021/12/25 04:09:25;;;;;;;4.82;2.65;;;-5.30;99.90;;;-5.33;75.09;100694.81;4914089;29;20202;-79
2021/12/25 04:11:58;;;;;;;4.30;3.38;;;-5.10;99.90;;;-5.31;75.01;100695.53;4910883;29;20281;-80
2021/12/25 04:14:27;;;;;;;4.90;3.88;;;-5.00;99.90;;;-5.20;75.68;100700.06;4910618;29;20224;-80
2021/12/25 04:16:57;;;;;;;5.03;3.42;;;-4.90;99.90;;;-5.05;75.73;100699.84;4915147;29;20194;-80
2021/12/25 04:19:26;;;;;;;3.05;2.75;;;-4.80;99.90;;;-5.13;74.99;100706.63;4929959;29;20218;-81
2021/12/25 04:22:00;;;;;;;8.05;2.55;;;-4.80;99.90;;;-5.22;76.35;100702.81;4928588;29;20273;-80
2021/12/25 04:24:34;;;;;;;5.03;2.35;;;-4.90;99.90;;;-5.27;75.76;100708.41;4911973;29;20248;-80
2021/12/25 04:27:09;;;;;;;8.40;2.10;;;-4.90;99.90;;;-5.30;75.93;100705.16;4907635;29;20214;-79
2021/12/25 04:29:43;;;;;;;5.95;1.60;;;-4.90;99.90;;;-5.22;76.67;100710.72;4908702;29;20192;-78
2021/12/25 04:49:45;;;;;;;4.18;1.80;;;-4.80;99.90;;;-5.46;76.79;100728.22;4928523;29;20186;-80
2021/12/25 05:04:25;;;;;;;3.05;1.55;;;-5.30;99.90;;;-6.13;76.16;100718.75;4884038;29;20232;-80
2021/12/25 05:07:10;;;;;;;1.45;1.10;;;-5.60;99.90;;;-6.16;75.48;100722.44;4888489;29;20198;-81
2021/12/25 05:09:38;;;;;;;2.97;1.48;;;-5.70;99.90;;;-6.10;76.00;100723.84;4905006;29;20206;-80
2021/12/25 05:12:12;;;;;;;2.30;1.67;;;-5.70;99.90;;;-6.22;75.78;100717.56;4919191;29;20185;-79
2021/12/25 05:14:42;;;;;;;2.80;1.35;;;-5.80;99.90;;;-6.27;76.09;100717.00;4922905;29;20214;-80
2021/12/25 05:17:15;;;;;;;4.55;1.95;;;-5.70;99.90;;;-6.12;76.13;100721.28;4938812;29;20225;-80
2021/12/25 05:19:44;;;;;;;1.83;1.30;;;-5.70;99.90;;;-6.20;76.52;100718.31;4938570;29;20178;-79
2021/12/25 05:22:17;;;;;;;3.50;1.63;;;-5.80;99.90;;;-6.27;75.75;100727.53;4922371;29;20194;-80
2021/12/25 05:24:48;;;;;;;6.25;1.65;;;-5.80;99.90;;;-6.07;76.65;100734.16;4922459;29;20266;-79
2021/12/25 05:27:23;;;;;;;5.45;3.78;;;-5.80;99.90;;;-6.21;76.63;100732.44;4912400;29;20217;-80
2021/12/25 05:29:52;;;;;;;3.88;2.00;;;-5.80;99.90;;;-6.10;76.42;100737.84;4913248;29;20198;-81
2021/12/25 05:32:36;;;;;;;2.72;1.45;;;-5.70;99.90;;;-6.07;75.70;100734.16;4930073;29;20206;-79
2021/12/25 05:35:43;;;;;;;3.20;1.10;;;-5.70;99.90;;;-5.98;76.39;100734.41;4917402;29;20208;-80
2021/12/25 05:38:25;;;;;;;2.45;1.20;;;-5.60;99.90;;;-6.14;75.94;100744.22;4914785;29;20194;-79
2021/12/25 05:41:14;;;;;;;2.22;1.70;;;-5.70;99.90;;;-6.46;76.21;100740.19;4913366;29;20249;-79
2021/12/25 05:43:44;;;;;;;2.10;1.58;;;-5.80;99.90;;;-6.40;76.00;100739.81;4906332;29;20760;-79
2021/12/25 05:46:19;;;;;;;4.70;1.42;;;-5.90;99.90;;;-6.25;77.28;100733.56;4904888;29;20284;-80
2021/12/25 05:48:50;;;;;;;2.67;1.50;;;-5.90;99.90;;;-5.69;76.25;100750.88;4906752;29;20186;-80
2021/12/25 05:51:32;;;;;;;1.85;1.25;;;-5.60;99.90;;;-5.97;75.20;100757.16;4905380;29;20190;-80
2021/12/25 05:54:30;;;;;;;3.47;2.03;;;-5.60;99.90;;;-5.87;76.72;100758.25;4911636;29;20583;-80
2021/12/25 05:57:13;;;;;;;4.13;1.70;;;-5.50;99.90;;;-6.13;75.54;100755.63;4906409;29;20201;-80
2021/12/25 06:00:02;;;;;;;5.72;2.47;;;-5.70;99.90;;;-6.26;75.69;100751.16;4907045;29;20674;-80
2021/12/25 06:02:44;;;;;;;3.80;1.92;;;-5.80;99.90;;;-6.11;76.58;100764.28;4906601;29;20179;-80
2021/12/25 06:05:29;;;;;;;2.65;1.30;;;-5.70;99.90;;;-6.06;76.22;100763.03;4908504;29;20194;-81
2021/12/25 06:07:58;;;;;;;5.40;1.42;;;-5.70;99.90;;;-6.08;75.78;100758.81;4907231;29;20201;-80
2021/12/25 06:10:27;;;;;;;3.42;1.75;;;-5.60;99.90;;;-6.13;75.60;100769.63;4907415;29;20201;-79
2021/12/25 06:13:00;;;;;;;2.15;1.90;;;-5.60;99.90;;;-5.73;76.65;100773.97;4921510;29;20206;-80
2021/12/25 06:15:36;;;;;;;4.65;2.13;;;-5.50;99.90;;;-5.51;76.20;100772.53;4921234;29;20218;-81
2021/12/25 06:18:30;;;;;;;2.97;1.48;;;-5.40;99.90;;;-5.49;75.26;100768.84;4921040;29;20190;-81
2021/12/25 06:21:11;;;;;;;2.47;1.80;;;-5.30;99.90;;;-5.61;74.45;100767.03;4921180;29;20661;-80
2021/12/25 06:24:15;;;;;;;2.15;1.60;;;-5.30;99.90;;;-5.73;74.90;100779.25;4904115;29;20311;-80
2021/12/25 06:26:47;;;;;;;8.60;2.28;;;-5.40;99.90;;;-5.83;74.29;100769.41;4907737;29;20186;-81
2021/12/25 06:29:37;;;;;;;4.35;1.88;;;-5.50;99.90;;;-6.22;75.62;100776.34;4922486;29;20314;-81
2021/12/25 06:32:29;;;;;;;3.50;1.52;;;-5.60;99.90;;;-6.06;75.40;100770.94;4906494;29;20229;-80
2021/12/25 06:35:21;;;;;;;3.35;1.75;;;-5.60;99.90;;;-6.04;75.61;100778.72;4904494;29;20229;-80
2021/12/25 06:38:20;;;;;;;2.67;1.90;;;-5.70;99.90;;;-5.56;75.42;100775.47;4904774;29;20202;-80
2021/12/25 06:41:14;;;;;;;5.03;1.77;;;-5.40;99.90;;;-5.28;74.67;100777.94;4905703;29;20187;-82
2021/12/25 06:43:45;;;;;;;3.75;1.42;;;-5.20;99.90;;;-5.29;74.51;100789.44;4908372;29;20248;-81
2021/12/25 06:46:27;;;;;;;3.70;1.70;;;-5.10;99.90;;;-5.22;74.47;100796.94;4920905;29;20294;-80
2021/12/25 06:48:56;;;;;;;6.55;2.25;;;-5.00;99.90;;;-5.35;74.36;100789.84;4906341;29;20194;-79
2021/12/25 06:51:52;;;;;;;1.50;1.40;;;-5.10;99.90;;;-5.28;73.82;100798.22;4905600;29;20199;-83
2021/12/25 06:54:35;;;;;;;2.35;1.67;;;-5.00;99.90;;;-5.06;73.96;100793.16;4920387;29;20214;-81
2021/12/25 06:57:48;;;;;;;2.53;1.45;;;-4.90;99.90;;;-5.31;74.11;100801.03;4884989;29;20222;-81
2021/12/25 07:00:19;;;;;;;3.97;1.65;;;-4.90;99.90;;;-5.45;74.33;100807.25;4871683;29;20264;-82
2021/12/25 07:02:50;;;;;;;2.60;2.00;;;-5.10;99.90;;;-5.36;74.66;100811.06;4893976;29;20194;-82
2021/12/25 07:05:58;;;;;;;3.03;1.92;;;-5.00;99.90;;;-5.18;74.70;100807.19;4948450;29;20198;-79
2021/12/25 07:08:51;;;;;;;12.55;2.40;;;-5.00;99.90;;;-5.23;74.53;100804.03;4939519;29;20256;-81
2021/12/25 07:11:43;;;;;;;2.85;1.75;;;-5.00;99.90;;;-5.20;74.21;100817.00;4889572;29;20202;-81
2021/12/25 07:14:27;;;;;;;2.38;1.50;;;-4.90;99.90;;;-5.42;73.95;100812.31;4909065;29;20244;-80
2021/12/25 07:17:07;;;;;;;4.20;1.40;;;-5.00;99.90;;;-5.29;74.50;100813.19;4928636;29;20174;-77
2021/12/25 07:19:56;;;;;;;3.13;1.73;;;-5.00;99.90;;;-5.44;73.67;100816.00;4936079;29;20202;-78
2021/12/25 07:23:03;;;;;;;2.10;1.40;;;-5.00;99.90;;;-5.38;74.12;100820.88;4925992;29;20217;-79
2021/12/25 07:25:39;;;;;;;3.20;1.35;;;-5.10;99.90;;;-5.24;73.97;100820.78;4935422;29;20246;-77
2021/12/25 07:28:39;;;;;;;5.32;2.88;;;-5.00;99.90;;;-5.69;73.72;100835.22;4923719;29;20212;-79
2021/12/25 07:31:08;;;;;;;7.05;4.80;;;-5.20;99.90;;;-6.06;74.43;100834.16;4918181;29;20202;-80
2021/12/25 07:33:42;;;;;;;5.22;4.35;;;-5.40;99.90;;;-6.16;75.52;100835.69;4915643;29;20210;-79
2021/12/25 07:36:14;;;;;;;3.80;2.70;;;-5.70;99.90;;;-5.53;75.52;100829.81;4914505;29;20227;-81
2021/12/25 07:38:52;;;;;;;4.43;3.78;;;-5.40;99.90;;;-5.31;74.66;100825.63;4934714;29;20215;-79
2021/12/25 07:41:27;;;;;;;4.80;3.17;;;-5.20;99.90;;;-5.37;73.21;100836.56;4920767;29;20171;-80
2021/12/25 07:44:06;;;;;;;4.43;2.28;;;-5.10;99.90;;;-5.65;73.16;100838.50;4918056;29;20757;-81
2021/12/25 07:46:45;;;;;;;2.60;1.90;;;-5.20;99.90;;;-5.77;73.54;100838.38;4915306;29;20174;-82
2021/12/25 07:49:18;;;;;;;10.30;7.85;;;-5.30;99.90;;;-5.85;73.25;100834.53;4914022;29;20203;-78
2021/12/25 07:51:52;;;;;;;11.88;7.50;;;-5.30;99.90;;;-5.40;73.71;100835.94;4915412;29;20178;-81
2021/12/25 07:54:22;;;;;;;4.65;2.20;;;-5.20;99.90;;;-5.48;73.81;100838.25;4916053;29;20229;-82
2021/12/25 07:56:51;;;;;;;3.65;3.35;;;-5.20;99.90;;;-5.43;74.08;100838.78;4916360;29;20198;-80
2021/12/25 07:59:25;;;;;;;3.10;2.40;;;-5.20;99.90;;;-5.30;73.76;100845.78;4917309;29;20249;-80
2021/12/25 08:01:56;;;;;;;2.50;1.95;;;-5.10;99.90;;;-5.04;73.45;100837.91;4919526;29;20189;-79
2021/12/25 08:07:53;;;;;;;2.67;2.17;;;-4.80;99.90;;;-5.10;72.50;100825.97;4919230;29;20186;-78
2021/12/25 08:10:33;;;;;;;4.47;2.05;;;-4.80;99.90;;;-5.18;73.28;100830.94;4935062;29;20194;-80
2021/12/25 08:13:03;;;;;;;4.50;2.92;;;-4.80;99.90;;;-5.24;73.30;100847.16;4917608;29;20289;-82
2021/12/25 08:15:49;;;;;;;5.65;2.30;;;-4.90;99.90;;;-5.32;72.88;100845.03;4917753;29;20213;-79
2021/12/25 08:18:31;;;;;;;6.20;3.00;;;-4.90;99.90;;;-5.05;72.22;100846.78;4917034;29;20223;-80
2021/12/25 08:21:28;;;;;;;3.85;2.50;;;-4.80;99.90;;;-5.07;71.96;100844.22;4916247;29;20213;-81
2021/12/25 08:25:05;;;;;;;4.03;2.67;;;-4.80;99.90;;;-5.15;72.27;100849.19;4926816;29;20218;-79
2021/12/25 08:33:14;;;;;;;3.70;2.08;;;-4.90;99.90;;;-5.10;72.82;100849.72;4932612;29;20212;-81
2021/12/25 08:44:30;;;;;;;3.88;3.00;;;-4.80;99.90;;;-4.87;71.67;100874.56;4917913;29;20229;-82
2021/12/25 08:47:41;;;;;;;2.47;2.28;;;-4.70;99.90;;;-4.85;71.56;100881.44;4914099;29;20267;-81
2021/12/25 08:50:35;;;;;;;8.93;5.75;;;-4.60;99.90;;;-5.09;72.10;100872.53;4913574;29;20183;-81
2021/12/25 08:53:39;;;;;;;5.90;2.90;;;-4.60;99.90;;;-5.04;71.42;100891.53;4923352;29;20218;-82
2021/12/25 08:56:38;;;;;;;2.40;2.20;;;-4.70;99.90;;;-4.92;71.22;100876.66;4912635;29;20209;-82
2021/12/25 08:59:37;;;;;;;3.65;2.20;;;-4.60;99.90;;;-4.93;72.02;100873.16;4910742;29;20257;-81
2021/12/25 09:02:34;;;;;;;3.20;2.88;;;-4.60;99.90;;;-4.68;71.40;100882.91;4911870;29;20285;-82
2021/12/25 09:05:26;;;;;;;7.47;2.40;;;-4.50;99.90;;;-4.75;71.04;100883.44;4924546;29;20279;-80
2021/12/25 09:09:26;;;;;;;6.72;3.00;;;-4.50;99.90;;;-4.70;70.98;100894.53;4916206;29;20182;-79
2021/12/25 09:12:21;;;;;;;3.35;2.35;;;-4.50;99.90;;;-4.48;70.20;100900.00;4928015;29;20205;-79
2021/12/25 09:18:27;;;;;;;3.65;2.65;;;-4.20;99.90;;;-4.12;68.83;100902.75;4914993;29;20213;-79
2021/12/25 09:21:09;;;;;;;8.63;3.08;;;-4.00;99.90;;;-4.09;69.52;100899.03;4920180;29;20226;-79
2021/12/25 09:23:41;;;;;;;4.28;3.13;;;-3.80;99.90;;;-4.21;68.50;100894.63;4932186;29;20218;-80
2021/12/25 09:26:18;;;;;;;9.02;4.80;;;-3.90;99.90;;;-4.28;68.77;100901.28;4913196;29;20214;-81
2021/12/25 09:28:48;;;;;;;4.28;3.88;;;-3.90;99.90;;;-4.35;69.49;100906.13;4917050;29;20202;-77
2021/12/25 09:31:19;;;;;;;6.45;3.65;;;-4.00;99.90;;;-4.23;69.83;100909.72;4920275;29;20220;-80
2021/12/25 09:33:49;;;;;;;7.07;3.42;;;-3.90;99.90;;;-3.95;70.18;100912.94;4919748;29;20249;-79
2021/12/25 09:36:18;;;;;;;5.88;3.70;;;-3.80;99.90;;;-3.70;69.19;100913.84;4920933;29;20182;-78
2021/12/25 09:38:47;;;;;;;4.72;4.22;;;-3.60;99.90;;;-3.64;69.05;100908.97;4919121;29;20269;-80
2021/12/25 09:41:25;;;;;;;9.50;3.70;;;-3.40;99.90;;;-3.73;68.98;100906.13;4917801;29;20175;-80
2021/12/25 09:44:00;;;;;;;4.43;3.50;;;-3.40;99.90;;;-3.78;68.36;100897.69;4912122;29;20213;-81
2021/12/25 09:46:29;;;;;;;4.30;3.42;;;-3.50;99.90;;;-3.78;68.67;100910.91;4925827;29;20232;-81
2021/12/25 09:48:59;;;;;;;5.72;3.00;;;-3.60;99.90;;;-3.77;68.88;100923.16;4910057;29;20222;-83
2021/12/25 09:51:28;;;;;;;10.60;5.93;;;-3.60;99.90;;;-3.74;68.60;100918.50;4912271;29;20182;-81
2021/12/25 09:54:02;;;;;;;6.68;3.70;;;-3.50;99.90;;;-3.72;67.90;100926.31;4910291;29;20210;-82
2021/12/25 09:56:32;;;;;;;7.00;2.67;;;-3.50;99.90;;;-3.43;67.11;100911.81;4910448;29;20705;-80
2021/12/25 09:59:03;;;;;;;4.03;3.20;;;-3.30;99.90;;;-3.54;68.02;100925.84;4911261;29;20205;-82
2021/12/25 10:01:40;;;;;;;5.18;2.92;;;-3.30;99.90;;;-3.56;67.90;100932.19;4913717;29;20190;-80
2021/12/25 10:04:36;;;;;;;8.10;3.05;;;-3.30;99.90;;;-3.63;67.23;100929.16;4915158;29;20238;-82
2021/12/25 10:07:40;;;;;;;3.08;2.78;;;-3.30;99.90;;;-3.49;67.44;100922.88;4912728;29;20198;-81
2021/12/25 10:16:26;;;;;;;13.35;11.98;;;-3.00;99.90;;;-3.02;65.79;100926.44;4937351;29;20243;-79
2021/12/25 10:19:13;;;;;;;4.65;3.70;;;-2.90;99.90;;;-2.88;66.51;100918.31;4921710;29;20162;-78
2021/12/25 10:21:43;;;;;;;5.25;2.83;;;-2.80;99.90;;;-2.71;65.59;100913.41;4922222;29;20170;-77
2021/12/25 10:27:54;;;;;;;6.35;3.03;;;-2.50;99.90;;;-2.71;63.35;100916.06;4926310;29;20200;-83
2021/12/25 10:30:59;;;;;;;4.32;2.30;;;-2.40;99.90;;;-2.60;62.96;100914.41;4913346;29;20194;-80
2021/12/25 10:33:39;;;;;;;4.30;3.13;;;-2.40;99.90;;;-2.74;63.65;100910.16;4912967;29;20226;-81
2021/12/25 10:36:26;;;;;;;4.28;2.05;;;-2.50;99.90;;;-2.71;61.94;100912.59;4928566;29;20194;-79
2021/12/25 10:39:04;;;;;;;4.03;2.13;;;-2.50;99.90;;;-2.75;63.12;100908.47;4918729;29;20209;-80
2021/12/25 10:41:39;;;;;;;3.50;2.30;;;-2.50;99.90;;;-2.46;63.17;100909.72;4916931;29;20193;-80
2021/12/25 10:44:16;;;;;;;3.25;1.85;;;-2.40;99.90;;;-2.50;61.85;100916.25;4917628;29;20218;-80
2021/12/25 10:46:54;;;;;;;4.05;2.75;;;-2.30;99.90;;;-2.61;61.80;100910.91;4932288;29;20240;-84
2021/12/25 10:49:27;;;;;;;2.70;2.50;;;-2.40;99.90;;;-2.30;61.71;100914.69;4929944;29;20253;-83
2021/12/25 10:52:09;;;;;;;2.38;1.52;;;-2.20;99.90;;;-2.40;59.27;100906.63;4928831;29;20283;-83
2021/12/25 10:54:43;;;;;;;7.72;2.35;;;-2.20;99.90;;;-2.33;58.83;100913.16;4914851;29;20217;-80
2021/12/25 10:57:31;;;;;;;7.10;2.25;;;-2.20;99.90;;;-2.40;59.97;100908.41;4927687;29;20200;-82
2021/12/25 11:00:02;;;;;;;2.00;1.40;;;-2.20;99.90;;;-2.32;60.43;100890.09;4913187;29;20202;-81
2021/12/25 11:02:37;;;;;;;2.67;2.08;;;-2.20;99.90;;;-2.36;61.05;100901.91;4918249;29;20181;-82
2021/12/25 11:05:19;;;;;;;6.25;2.95;;;-2.20;99.90;;;-1.88;61.62;100905.16;4918084;29;20194;-79
2021/12/25 11:08:07;;;;;;;5.90;2.15;;;-2.00;99.90;;;-2.12;60.62;100902.66;4931583;29;20231;-78
2021/12/25 11:10:44;;;;;;;5.43;2.38;;;-2.00;99.90;;;-1.92;60.84;100893.13;4912413;29;20183;-82
2021/12/25 11:13:21;;;;;;;4.53;2.55;;;-1.80;99.90;;;-1.63;62.05;100893.44;4910438;29;20210;-79
2021/12/25 11:15:55;;;;;;;3.38;2.25;;;-1.60;99.90;;;-1.59;60.43;100901.00;4925176;29;20198;-83
2021/12/25 11:19:02;;;;;;;3.38;2.10;;;-1.50;99.90;;;-1.63;61.33;100904.03;4911619;29;20293;-82
2021/12/25 11:21:37;;;;;;;7.22;2.60;;;-1.50;99.90;;;-1.54;61.41;100903.28;4924680;29;20186;-83
2021/12/25 11:24:15;;;;;;;6.40;2.28;;;-1.40;99.90;;;-1.44;60.00;100910.38;4925540;29;20252;-81
2021/12/25 11:26:48;;;;;;;4.80;2.67;;;-1.40;99.90;;;-1.34;59.69;100911.31;4894085;29;20320;-82
2021/12/25 11:29:26;;;;;;;4.07;3.47;;;-1.20;99.90;;;-1.52;59.66;100907.53;4911933;29;20186;-82
2021/12/25 11:32:13;;;;;;;5.20;2.10;;;-1.40;99.90;;;-1.61;60.62;100908.28;4918083;29;20205;-80
2021/12/25 11:34:46;;;;;;;5.25;2.72;;;-1.50;99.90;;;-1.62;59.58;100906.59;4912957;29;20214;-83
2021/12/25 11:37:14;;;;;;;2.60;1.90;;;-1.50;99.90;;;-1.86;60.00;100903.25;4909887;29;20229;-84
2021/12/25 11:39:51;;;;;;;3.80;1.98;;;-1.60;99.90;;;-1.92;60.13;100906.38;4925629;29;20202;-82
2021/12/25 11:42:22;;;;;;;5.25;2.90;;;-1.70;99.90;;;-1.51;59.46;100903.91;4909955;29;20249;-82
2021/12/25 11:44:54;;;;;;;4.70;2.50;;;-1.50;99.90;;;-1.60;58.72;100899.34;4910332;29;20681;-81
2021/12/25 11:47:34;;;;;;;3.47;2.30;;;-1.50;99.90;;;-1.64;58.35;100905.84;4914053;29;20202;-82
2021/12/25 11:50:13;;;;;;;2.90;2.40;;;-1.50;99.90;;;-1.58;59.03;100908.00;4914588;29;20201;-81
2021/12/25 11:52:50;;;;;;;5.78;5.13;;;-1.40;99.90;;;-1.41;58.80;100919.94;4927868;29;20190;-84
2021/12/25 11:55:45;;;;;;;3.25;2.33;;;-1.30;99.90;;;-1.24;58.32;100907.91;4927543;29;20290;-83
2021/12/25 11:58:43;;;;;;;4.75;2.20;;;-1.10;99.90;;;-1.39;58.64;100902.03;4918812;29;20207;-80
2021/12/25 12:01:27;;;;;;;5.45;2.60;;;-1.10;99.90;;;-1.29;58.48;100904.78;4920491;29;20198;-79
2021/12/25 12:03:59;;;;;;;6.15;3.10;;;-1.20;99.90;;;-1.22;57.54;100906.84;4920538;29;20224;-82
2021/12/25 12:07:12;;;;;;;3.92;2.63;;;-1.10;99.90;;;-1.42;59.09;100903.16;4916334;29;20273;-84
2021/12/25 12:10:03;;;;;;;6.22;2.53;;;-1.20;99.90;;;-1.21;57.47;100899.72;4914968;29;20193;-79
2021/12/25 12:13:19;;;;;;;5.78;2.53;;;-1.10;99.90;;;-1.51;58.89;100903.06;4895546;29;20249;-81
2021/12/25 12:16:15;;;;;;;3.20;1.85;;;-1.40;99.90;;;-1.10;57.13;100897.00;4905485;29;20231;-82
2021/12/25 12:19:04;;;;;;;3.10;2.05;;;-1.10;99.90;;;-1.12;57.35;100905.13;4912978;29;20225;-81
2021/12/25 12:21:40;;;;;;;2.90;1.70;;;-1.10;99.90;;;-1.22;58.30;100898.03;4912251;29;20179;-81
2021/12/25 12:24:48;;;;;;;3.30;1.60;;;-1.10;99.90;;;-0.98;57.13;100898.66;4912046;29;20238;-82